sensor_id;sensor_type;location;lat;lon;timestamp;P1;durP1;ratioP1;P2;durP2;ratioP2
7162;SDS011;3623;47.098;15.446;2023-04-24T00:02:02;11.82;;;10.63;;
7162;SDS011;3623;47.098;15.446;2023-04-24T00:04:34;12.52;;;11.32;;
7162;SDS011;3623;47.098;15.446;2023-04-24T00:07:01;11.95;;;10.85;;
7162;SDS011;3623;47.098;15.446;2023-04-24T00:09:28;11.55;;;10.45;;
7162;SDS011;3623;47.098;15.446;2023-04-24T00:11:56;12.00;;;10.45;;
7162;SDS011;3623;47.098;15.446;2023-04-24T00:14:24;12.48;;;11.30;;
7162;SDS011;3623;47.098;15.446;2023-04-24T00:16:52;14.60;;;11.77;;
7162;SDS011;3623;47.098;15.446;2023-04-24T00:19:19;10.88;;;9.93;;
7162;SDS011;3623;47.098;15.446;2023-04-24T00:21:50;12.93;;;11.27;;
7162;SDS011;3623;47.098;15.446;2023-04-24T00:24:30;15.40;;;11.48;;
7162;SDS011;3623;47.098;15.446;2023-04-24T00:27:11;12.57;;;11.38;;
7162;SDS011;3623;47.098;15.446;2023-04-24T00:29:45;11.98;;;10.88;;
7162;SDS011;3623;47.098;15.446;2023-04-24T00:32:12;13.48;;;12.13;;
7162;SDS011;3623;47.098;15.446;2023-04-24T00:34:50;13.43;;;12.00;;
7162;SDS011;3623;47.098;15.446;2023-04-24T00:37:26;14.45;;;12.23;;
7162;SDS011;3623;47.098;15.446;2023-04-24T00:39:59;14.10;;;12.55;;
7162;SDS011;3623;47.098;15.446;2023-04-24T00:42:28;15.20;;;13.02;;
7162;SDS011;3623;47.098;15.446;2023-04-24T00:45:00;14.07;;;12.20;;
7162;SDS011;3623;47.098;15.446;2023-04-24T00:47:29;11.65;;;10.43;;
7162;SDS011;3623;47.098;15.446;2023-04-24T00:49:56;14.45;;;12.93;;
7162;SDS011;3623;47.098;15.446;2023-04-24T00:52:24;13.43;;;12.13;;
7162;SDS011;3623;47.098;15.446;2023-04-24T00:54:53;16.10;;;12.95;;
7162;SDS011;3623;47.098;15.446;2023-04-24T00:57:34;17.80;;;12.82;;
7162;SDS011;3623;47.098;15.446;2023-04-24T01:00:04;12.82;;;11.60;;
7162;SDS011;3623;47.098;15.446;2023-04-24T01:02:40;14.63;;;13.13;;
7162;SDS011;3623;47.098;15.446;2023-04-24T01:05:10;14.52;;;13.13;;
7162;SDS011;3623;47.098;15.446;2023-04-24T01:07:56;15.65;;;11.45;;
7162;SDS011;3623;47.098;15.446;2023-04-24T01:10:51;17.55;;;13.88;;
7162;SDS011;3623;47.098;15.446;2023-04-24T01:13:24;14.85;;;13.45;;
7162;SDS011;3623;47.098;15.446;2023-04-24T01:16:03;14.95;;;12.45;;
7162;SDS011;3623;47.098;15.446;2023-04-24T01:18:31;15.20;;;13.57;;
7162;SDS011;3623;47.098;15.446;2023-04-24T01:21:11;17.48;;;14.50;;
7162;SDS011;3623;47.098;15.446;2023-04-24T01:23:50;15.73;;;13.45;;
7162;SDS011;3623;47.098;15.446;2023-04-24T01:26:21;14.70;;;13.20;;
7162;SDS011;3623;47.098;15.446;2023-04-24T01:29:12;15.70;;;13.52;;
7162;SDS011;3623;47.098;15.446;2023-04-24T01:31:51;15.07;;;13.10;;
7162;SDS011;3623;47.098;15.446;2023-04-24T01:34:27;15.18;;;13.57;;
7162;SDS011;3623;47.098;15.446;2023-04-24T01:37:00;14.70;;;12.95;;
7162;SDS011;3623;47.098;15.446;2023-04-24T01:39:43;18.40;;;14.05;;
7162;SDS011;3623;47.098;15.446;2023-04-24T01:42:16;16.05;;;13.88;;
7162;SDS011;3623;47.098;15.446;2023-04-24T01:45:07;13.73;;;12.32;;
7162;SDS011;3623;47.098;15.446;2023-04-24T01:47:56;15.93;;;12.77;;
7162;SDS011;3623;47.098;15.446;2023-04-24T01:50:42;14.77;;;13.35;;
7162;SDS011;3623;47.098;15.446;2023-04-24T01:53:28;20.00;;;14.80;;
7162;SDS011;3623;47.098;15.446;2023-04-24T01:56:15;15.40;;;13.85;;
7162;SDS011;3623;47.098;15.446;2023-04-24T01:59:01;18.20;;;13.55;;
7162;SDS011;3623;47.098;15.446;2023-04-24T02:01:48;19.95;;;15.90;;
7162;SDS011;3623;47.098;15.446;2023-04-24T02:04:34;16.08;;;13.68;;
7162;SDS011;3623;47.098;15.446;2023-04-24T02:07:21;18.05;;;14.93;;
7162;SDS011;3623;47.098;15.446;2023-04-24T02:10:08;20.95;;;15.82;;
7162;SDS011;3623;47.098;15.446;2023-04-24T02:12:56;18.63;;;16.02;;
7162;SDS011;3623;47.098;15.446;2023-04-24T02:15:43;17.17;;;14.00;;
7162;SDS011;3623;47.098;15.446;2023-04-24T02:18:29;15.73;;;14.05;;
7162;SDS011;3623;47.098;15.446;2023-04-24T02:21:14;15.73;;;14.00;;
7162;SDS011;3623;47.098;15.446;2023-04-24T02:24:00;15.70;;;14.13;;
7162;SDS011;3623;47.098;15.446;2023-04-24T02:26:46;16.30;;;13.80;;
7162;SDS011;3623;47.098;15.446;2023-04-24T02:29:33;13.25;;;11.82;;
7162;SDS011;3623;47.098;15.446;2023-04-24T02:32:19;13.63;;;12.32;;
7162;SDS011;3623;47.098;15.446;2023-04-24T02:35:07;13.77;;;12.45;;
7162;SDS011;3623;47.098;15.446;2023-04-24T02:37:53;12.57;;;11.48;;
7162;SDS011;3623;47.098;15.446;2023-04-24T02:40:39;13.18;;;11.88;;
7162;SDS011;3623;47.098;15.446;2023-04-24T02:43:24;13.40;;;12.07;;
7162;SDS011;3623;47.098;15.446;2023-04-24T02:46:11;13.55;;;11.77;;
7162;SDS011;3623;47.098;15.446;2023-04-24T02:48:57;12.57;;;11.38;;
7162;SDS011;3623;47.098;15.446;2023-04-24T02:51:43;14.88;;;12.43;;
7162;SDS011;3623;47.098;15.446;2023-04-24T02:54:29;13.77;;;12.02;;
7162;SDS011;3623;47.098;15.446;2023-04-24T02:57:15;16.85;;;12.88;;
7162;SDS011;3623;47.098;15.446;2023-04-24T03:00:01;18.88;;;14.35;;
7162;SDS011;3623;47.098;15.446;2023-04-24T03:02:52;16.35;;;14.70;;
7162;SDS011;3623;47.098;15.446;2023-04-24T03:05:38;21.55;;;15.00;;
7162;SDS011;3623;47.098;15.446;2023-04-24T03:08:24;18.23;;;15.52;;
7162;SDS011;3623;47.098;15.446;2023-04-24T03:11:09;18.25;;;15.20;;
7162;SDS011;3623;47.098;15.446;2023-04-24T03:13:55;18.13;;;15.88;;
7162;SDS011;3623;47.098;15.446;2023-04-24T03:16:41;18.42;;;13.32;;
7162;SDS011;3623;47.098;15.446;2023-04-24T03:19:28;18.15;;;14.57;;
7162;SDS011;3623;47.098;15.446;2023-04-24T03:22:14;21.92;;;16.58;;
7162;SDS011;3623;47.098;15.446;2023-04-24T03:25:00;16.38;;;13.98;;
7162;SDS011;3623;47.098;15.446;2023-04-24T03:27:45;19.65;;;15.52;;
7162;SDS011;3623;47.098;15.446;2023-04-24T03:30:31;17.00;;;14.25;;
7162;SDS011;3623;47.098;15.446;2023-04-24T03:33:17;21.00;;;15.63;;
7162;SDS011;3623;47.098;15.446;2023-04-24T03:36:05;17.80;;;15.20;;
7162;SDS011;3623;47.098;15.446;2023-04-24T03:38:51;17.27;;;14.75;;
7162;SDS011;3623;47.098;15.446;2023-04-24T03:41:37;18.75;;;15.93;;
7162;SDS011;3623;47.098;15.446;2023-04-24T03:44:23;19.60;;;16.25;;
7162;SDS011;3623;47.098;15.446;2023-04-24T03:47:08;17.95;;;15.35;;
7162;SDS011;3623;47.098;15.446;2023-04-24T03:49:54;18.10;;;16.20;;
7162;SDS011;3623;47.098;15.446;2023-04-24T03:52:41;20.95;;;16.45;;
7162;SDS011;3623;47.098;15.446;2023-04-24T03:55:27;23.35;;;17.58;;
7162;SDS011;3623;47.098;15.446;2023-04-24T03:58:13;18.45;;;15.18;;
7162;SDS011;3623;47.098;15.446;2023-04-24T04:01:03;19.83;;;17.00;;
7162;SDS011;3623;47.098;15.446;2023-04-24T04:03:49;19.48;;;17.45;;
7162;SDS011;3623;47.098;15.446;2023-04-24T04:06:38;19.30;;;16.45;;
7162;SDS011;3623;47.098;15.446;2023-04-24T04:09:28;19.95;;;16.15;;
7162;SDS011;3623;47.098;15.446;2023-04-24T04:12:13;24.20;;;17.92;;
7162;SDS011;3623;47.098;15.446;2023-04-24T04:14:59;22.50;;;16.98;;
7162;SDS011;3623;47.098;15.446;2023-04-24T04:17:45;22.65;;;18.13;;
7162;SDS011;3623;47.098;15.446;2023-04-24T04:20:30;24.38;;;19.13;;
7162;SDS011;3623;47.098;15.446;2023-04-24T04:23:16;23.67;;;17.27;;
7162;SDS011;3623;47.098;15.446;2023-04-24T04:26:03;25.45;;;18.42;;
7162;SDS011;3623;47.098;15.446;2023-04-24T04:28:49;19.50;;;15.88;;
7162;SDS011;3623;47.098;15.446;2023-04-24T04:31:35;22.70;;;18.05;;
7162;SDS011;3623;47.098;15.446;2023-04-24T04:34:21;25.40;;;18.10;;
7162;SDS011;3623;47.098;15.446;2023-04-24T04:37:07;18.00;;;16.10;;
7162;SDS011;3623;47.098;15.446;2023-04-24T04:39:54;20.05;;;17.30;;
7162;SDS011;3623;47.098;15.446;2023-04-24T04:42:42;22.45;;;18.40;;
7162;SDS011;3623;47.098;15.446;2023-04-24T04:45:31;20.20;;;17.23;;
7162;SDS011;3623;47.098;15.446;2023-04-24T04:48:17;23.63;;;17.45;;
7162;SDS011;3623;47.098;15.446;2023-04-24T04:51:04;32.58;;;17.52;;
7162;SDS011;3623;47.098;15.446;2023-04-24T04:53:50;20.50;;;16.17;;
7162;SDS011;3623;47.098;15.446;2023-04-24T04:56:35;22.58;;;16.67;;
7162;SDS011;3623;47.098;15.446;2023-04-24T04:59:23;19.27;;;16.98;;
7162;SDS011;3623;47.098;15.446;2023-04-24T05:02:09;18.95;;;15.90;;
7162;SDS011;3623;47.098;15.446;2023-04-24T05:04:55;18.20;;;15.98;;
7162;SDS011;3623;47.098;15.446;2023-04-24T05:07:41;23.38;;;17.75;;
7162;SDS011;3623;47.098;15.446;2023-04-24T05:10:26;23.65;;;15.80;;
7162;SDS011;3623;47.098;15.446;2023-04-24T05:13:12;17.95;;;15.55;;
7162;SDS011;3623;47.098;15.446;2023-04-24T05:16:01;20.17;;;17.35;;
7162;SDS011;3623;47.098;15.446;2023-04-24T05:18:47;18.67;;;16.63;;
7162;SDS011;3623;47.098;15.446;2023-04-24T05:21:33;23.55;;;17.83;;
7162;SDS011;3623;47.098;15.446;2023-04-24T05:24:24;20.23;;;15.75;;
7162;SDS011;3623;47.098;15.446;2023-04-24T05:27:09;17.80;;;15.90;;
7162;SDS011;3623;47.098;15.446;2023-04-24T05:29:55;20.58;;;16.95;;
7162;SDS011;3623;47.098;15.446;2023-04-24T05:32:42;19.77;;;16.95;;
7162;SDS011;3623;47.098;15.446;2023-04-24T05:35:28;19.17;;;17.13;;
7162;SDS011;3623;47.098;15.446;2023-04-24T05:38:14;18.15;;;16.30;;
7162;SDS011;3623;47.098;15.446;2023-04-24T05:41:01;18.17;;;16.27;;
7162;SDS011;3623;47.098;15.446;2023-04-24T05:43:48;18.40;;;15.70;;
7162;SDS011;3623;47.098;15.446;2023-04-24T05:46:33;16.50;;;14.52;;
7162;SDS011;3623;47.098;15.446;2023-04-24T05:49:21;19.73;;;16.45;;
7162;SDS011;3623;47.098;15.446;2023-04-24T05:52:07;19.73;;;15.70;;
7162;SDS011;3623;47.098;15.446;2023-04-24T05:54:53;19.13;;;15.45;;
7162;SDS011;3623;47.098;15.446;2023-04-24T05:57:39;22.15;;;16.15;;
7162;SDS011;3623;47.098;15.446;2023-04-24T06:00:25;15.57;;;13.90;;
7162;SDS011;3623;47.098;15.446;2023-04-24T06:03:10;16.88;;;14.60;;
7162;SDS011;3623;47.098;15.446;2023-04-24T06:05:58;16.00;;;14.35;;
7162;SDS011;3623;47.098;15.446;2023-04-24T06:08:43;17.90;;;13.98;;
7162;SDS011;3623;47.098;15.446;2023-04-24T06:11:29;22.15;;;13.85;;
7162;SDS011;3623;47.098;15.446;2023-04-24T06:14:15;16.08;;;14.50;;
7162;SDS011;3623;47.098;15.446;2023-04-24T06:17:01;13.57;;;12.32;;
7162;SDS011;3623;47.098;15.446;2023-04-24T06:19:47;14.93;;;13.52;;
7162;SDS011;3623;47.098;15.446;2023-04-24T06:22:34;16.67;;;11.55;;
7162;SDS011;3623;47.098;15.446;2023-04-24T06:25:20;12.30;;;11.10;;
7162;SDS011;3623;47.098;15.446;2023-04-24T06:28:06;14.38;;;13.07;;
7162;SDS011;3623;47.098;15.446;2023-04-24T06:30:51;14.88;;;12.75;;
7162;SDS011;3623;47.098;15.446;2023-04-24T06:33:37;13.73;;;12.52;;
7162;SDS011;3623;47.098;15.446;2023-04-24T06:36:23;12.13;;;10.93;;
7162;SDS011;3623;47.098;15.446;2023-04-24T06:39:10;15.02;;;10.05;;
7162;SDS011;3623;47.098;15.446;2023-04-24T06:41:56;12.90;;;11.15;;
7162;SDS011;3623;47.098;15.446;2023-04-24T06:44:44;10.77;;;9.77;;
7162;SDS011;3623;47.098;15.446;2023-04-24T06:47:29;11.85;;;10.77;;
7162;SDS011;3623;47.098;15.446;2023-04-24T06:50:15;12.50;;;11.30;;
7162;SDS011;3623;47.098;15.446;2023-04-24T06:53:01;16.77;;;12.18;;
7162;SDS011;3623;47.098;15.446;2023-04-24T06:55:48;16.08;;;10.50;;
7162;SDS011;3623;47.098;15.446;2023-04-24T06:58:34;13.75;;;10.80;;
7162;SDS011;3623;47.098;15.446;2023-04-24T07:01:20;12.57;;;10.70;;
7162;SDS011;3623;47.098;15.446;2023-04-24T07:04:05;12.48;;;11.30;;
7162;SDS011;3623;47.098;15.446;2023-04-24T07:06:51;13.50;;;11.73;;
7162;SDS011;3623;47.098;15.446;2023-04-24T07:09:39;12.57;;;11.27;;
7162;SDS011;3623;47.098;15.446;2023-04-24T07:12:27;12.38;;;11.10;;
7162;SDS011;3623;47.098;15.446;2023-04-24T07:15:16;11.90;;;10.60;;
7162;SDS011;3623;47.098;15.446;2023-04-24T07:18:02;12.45;;;11.15;;
7162;SDS011;3623;47.098;15.446;2023-04-24T07:20:48;13.32;;;10.82;;
7162;SDS011;3623;47.098;15.446;2023-04-24T07:23:34;16.00;;;11.27;;
7162;SDS011;3623;47.098;15.446;2023-04-24T07:26:20;12.85;;;11.52;;
7162;SDS011;3623;47.098;15.446;2023-04-24T07:29:07;12.68;;;11.38;;
7162;SDS011;3623;47.098;15.446;2023-04-24T07:31:53;13.63;;;12.23;;
7162;SDS011;3623;47.098;15.446;2023-04-24T07:34:39;13.90;;;12.50;;
7162;SDS011;3623;47.098;15.446;2023-04-24T07:37:29;14.40;;;12.90;;
7162;SDS011;3623;47.098;15.446;2023-04-24T07:40:14;15.75;;;14.15;;
7162;SDS011;3623;47.098;15.446;2023-04-24T07:43:00;15.82;;;12.75;;
7162;SDS011;3623;47.098;15.446;2023-04-24T07:45:47;15.48;;;13.93;;
7162;SDS011;3623;47.098;15.446;2023-04-24T07:48:33;15.88;;;14.02;;
7162;SDS011;3623;47.098;15.446;2023-04-24T07:51:19;15.90;;;14.18;;
7162;SDS011;3623;47.098;15.446;2023-04-24T07:54:04;15.65;;;12.80;;
7162;SDS011;3623;47.098;15.446;2023-04-24T07:56:50;19.65;;;14.27;;
7162;SDS011;3623;47.098;15.446;2023-04-24T07:59:37;16.58;;;14.93;;
7162;SDS011;3623;47.098;15.446;2023-04-24T08:02:24;16.85;;;15.02;;
7162;SDS011;3623;47.098;15.446;2023-04-24T08:05:11;17.88;;;14.95;;
7162;SDS011;3623;47.098;15.446;2023-04-24T08:07:56;16.85;;;15.00;;
7162;SDS011;3623;47.098;15.446;2023-04-24T08:10:50;20.65;;;14.30;;
7162;SDS011;3623;47.098;15.446;2023-04-24T08:13:36;18.15;;;16.27;;
7162;SDS011;3623;47.098;15.446;2023-04-24T08:16:35;19.65;;;17.15;;
7162;SDS011;3623;47.098;15.446;2023-04-24T08:19:23;19.58;;;16.58;;
7162;SDS011;3623;47.098;15.446;2023-04-24T08:22:09;20.88;;;16.35;;
7162;SDS011;3623;47.098;15.446;2023-04-24T08:24:54;21.75;;;15.75;;
7162;SDS011;3623;47.098;15.446;2023-04-24T08:27:41;21.38;;;16.02;;
7162;SDS011;3623;47.098;15.446;2023-04-24T08:30:27;17.85;;;15.95;;
7162;SDS011;3623;47.098;15.446;2023-04-24T08:33:13;18.77;;;16.40;;
7162;SDS011;3623;47.098;15.446;2023-04-24T08:36:02;15.98;;;14.32;;
7162;SDS011;3623;47.098;15.446;2023-04-24T08:38:49;16.90;;;15.15;;
7162;SDS011;3623;47.098;15.446;2023-04-24T08:41:34;19.65;;;17.10;;
7162;SDS011;3623;47.098;15.446;2023-04-24T08:44:22;17.40;;;15.48;;
7162;SDS011;3623;47.098;15.446;2023-04-24T08:47:11;18.00;;;15.23;;
7162;SDS011;3623;47.098;15.446;2023-04-24T08:49:58;17.50;;;15.57;;
7162;SDS011;3623;47.098;15.446;2023-04-24T08:52:48;20.77;;;16.08;;
7162;SDS011;3623;47.098;15.446;2023-04-24T08:55:37;20.02;;;17.27;;
7162;SDS011;3623;47.098;15.446;2023-04-24T08:58:27;16.77;;;15.07;;
7162;SDS011;3623;47.098;15.446;2023-04-24T09:01:18;19.73;;;16.33;;
7162;SDS011;3623;47.098;15.446;2023-04-24T09:04:04;28.15;;;18.48;;
7162;SDS011;3623;47.098;15.446;2023-04-24T09:06:55;20.58;;;17.52;;
7162;SDS011;3623;47.098;15.446;2023-04-24T09:09:43;17.48;;;15.80;;
7162;SDS011;3623;47.098;15.446;2023-04-24T09:12:29;16.83;;;15.02;;
7162;SDS011;3623;47.098;15.446;2023-04-24T09:15:22;17.48;;;15.77;;
7162;SDS011;3623;47.098;15.446;2023-04-24T09:18:10;17.05;;;15.27;;
7162;SDS011;3623;47.098;15.446;2023-04-24T09:20:59;16.27;;;12.38;;
7162;SDS011;3623;47.098;15.446;2023-04-24T09:23:46;12.90;;;11.35;;
7162;SDS011;3623;47.098;15.446;2023-04-24T09:26:43;12.43;;;9.43;;
7162;SDS011;3623;47.098;15.446;2023-04-24T09:29:30;9.95;;;8.93;;
7162;SDS011;3623;47.098;15.446;2023-04-24T09:32:20;8.60;;;7.80;;
7162;SDS011;3623;47.098;15.446;2023-04-24T09:35:10;7.05;;;6.38;;
7162;SDS011;3623;47.098;15.446;2023-04-24T09:37:57;6.45;;;5.88;;
7162;SDS011;3623;47.098;15.446;2023-04-24T09:40:43;3.90;;;3.53;;
7162;SDS011;3623;47.098;15.446;2023-04-24T09:43:30;3.70;;;3.47;;
7162;SDS011;3623;47.098;15.446;2023-04-24T09:46:18;4.18;;;3.80;;
7162;SDS011;3623;47.098;15.446;2023-04-24T09:49:09;3.40;;;3.20;;
7162;SDS011;3623;47.098;15.446;2023-04-24T09:52:02;10.07;;;7.35;;
7162;SDS011;3623;47.098;15.446;2023-04-24T09:54:54;12.68;;;8.35;;
7162;SDS011;3623;47.098;15.446;2023-04-24T09:57:47;8.25;;;6.18;;
7162;SDS011;3623;47.098;15.446;2023-04-24T10:00:39;5.45;;;4.20;;
7162;SDS011;3623;47.098;15.446;2023-04-24T10:03:25;4.85;;;4.00;;
7162;SDS011;3623;47.098;15.446;2023-04-24T10:06:14;4.10;;;3.80;;
7162;SDS011;3623;47.098;15.446;2023-04-24T10:09:02;5.20;;;4.32;;
7162;SDS011;3623;47.098;15.446;2023-04-24T10:11:49;4.15;;;3.80;;
7162;SDS011;3623;47.098;15.446;2023-04-24T10:14:36;6.03;;;5.45;;
7162;SDS011;3623;47.098;15.446;2023-04-24T10:17:24;5.57;;;4.28;;
7162;SDS011;3623;47.098;15.446;2023-04-24T10:20:13;5.50;;;4.20;;
7162;SDS011;3623;47.098;15.446;2023-04-24T10:23:12;4.15;;;3.85;;
7162;SDS011;3623;47.098;15.446;2023-04-24T10:25:58;3.80;;;3.40;;
7162;SDS011;3623;47.098;15.446;2023-04-24T10:28:46;3.67;;;3.40;;
7162;SDS011;3623;47.098;15.446;2023-04-24T10:31:32;2.23;;;2.13;;
7162;SDS011;3623;47.098;15.446;2023-04-24T10:34:20;2.40;;;2.30;;
7162;SDS011;3623;47.098;15.446;2023-04-24T10:37:06;3.40;;;3.10;;
7162;SDS011;3623;47.098;15.446;2023-04-24T10:39:52;2.87;;;2.60;;
7162;SDS011;3623;47.098;15.446;2023-04-24T10:42:40;2.97;;;2.77;;
7162;SDS011;3623;47.098;15.446;2023-04-24T10:45:29;3.40;;;3.10;;
7162;SDS011;3623;47.098;15.446;2023-04-24T10:48:14;3.07;;;2.40;;
7162;SDS011;3623;47.098;15.446;2023-04-24T10:51:02;2.10;;;2.00;;
7162;SDS011;3623;47.098;15.446;2023-04-24T10:53:47;3.23;;;1.87;;
7162;SDS011;3623;47.098;15.446;2023-04-24T10:56:34;2.67;;;2.47;;
7162;SDS011;3623;47.098;15.446;2023-04-24T10:59:24;2.90;;;2.70;;
7162;SDS011;3623;47.098;15.446;2023-04-24T11:02:10;2.97;;;2.53;;
7162;SDS011;3623;47.098;15.446;2023-04-24T11:04:59;2.33;;;2.13;;
7162;SDS011;3623;47.098;15.446;2023-04-24T11:10:46;2.87;;;2.30;;
7162;SDS011;3623;47.098;15.446;2023-04-24T11:13:21;2.30;;;2.07;;
7162;SDS011;3623;47.098;15.446;2023-04-24T11:18:41;3.87;;;2.17;;
7162;SDS011;3623;47.098;15.446;2023-04-24T11:21:16;2.50;;;2.30;;
7162;SDS011;3623;47.098;15.446;2023-04-24T11:23:45;3.43;;;1.80;;
7162;SDS011;3623;47.098;15.446;2023-04-24T11:26:13;3.17;;;2.50;;
7162;SDS011;3623;47.098;15.446;2023-04-24T11:28:45;1.97;;;1.87;;
7162;SDS011;3623;47.098;15.446;2023-04-24T11:34:07;1.73;;;1.63;;
7162;SDS011;3623;47.098;15.446;2023-04-24T11:36:35;1.50;;;1.20;;
7162;SDS011;3623;47.098;15.446;2023-04-24T11:39:05;1.60;;;1.50;;
7162;SDS011;3623;47.098;15.446;2023-04-24T11:41:39;1.37;;;1.03;;
7162;SDS011;3623;47.098;15.446;2023-04-24T11:44:09;1.27;;;1.17;;
7162;SDS011;3623;47.098;15.446;2023-04-24T11:46:37;1.13;;;1.03;;
7162;SDS011;3623;47.098;15.446;2023-04-24T11:49:05;1.10;;;0.70;;
7162;SDS011;3623;47.098;15.446;2023-04-24T11:51:32;1.87;;;1.50;;
7162;SDS011;3623;47.098;15.446;2023-04-24T11:54:00;1.50;;;1.40;;
7162;SDS011;3623;47.098;15.446;2023-04-24T11:56:29;1.60;;;1.50;;
7162;SDS011;3623;47.098;15.446;2023-04-24T11:58:56;1.00;;;1.00;;
7162;SDS011;3623;47.098;15.446;2023-04-24T12:01:23;1.63;;;1.13;;
7162;SDS011;3623;47.098;15.446;2023-04-24T12:03:51;1.73;;;1.00;;
7162;SDS011;3623;47.098;15.446;2023-04-24T12:06:26;1.13;;;1.07;;
7162;SDS011;3623;47.098;15.446;2023-04-24T12:08:53;1.10;;;1.10;;
7162;SDS011;3623;47.098;15.446;2023-04-24T12:11:22;2.17;;;1.97;;
7162;SDS011;3623;47.098;15.446;2023-04-24T12:13:59;1.60;;;1.50;;
7162;SDS011;3623;47.098;15.446;2023-04-24T12:16:36;1.73;;;1.30;;
7162;SDS011;3623;47.098;15.446;2023-04-24T12:19:05;1.30;;;1.20;;
7162;SDS011;3623;47.098;15.446;2023-04-24T12:21:32;1.20;;;1.20;;
7162;SDS011;3623;47.098;15.446;2023-04-24T12:23:59;1.50;;;1.40;;
7162;SDS011;3623;47.098;15.446;2023-04-24T12:26:27;1.40;;;1.30;;
7162;SDS011;3623;47.098;15.446;2023-04-24T12:28:54;2.00;;;1.00;;
7162;SDS011;3623;47.098;15.446;2023-04-24T12:31:22;1.70;;;1.27;;
7162;SDS011;3623;47.098;15.446;2023-04-24T12:33:51;1.30;;;1.23;;
7162;SDS011;3623;47.098;15.446;2023-04-24T12:36:20;1.37;;;1.10;;
7162;SDS011;3623;47.098;15.446;2023-04-24T12:38:52;2.73;;;1.33;;
7162;SDS011;3623;47.098;15.446;2023-04-24T12:41:19;0.70;;;0.70;;
7162;SDS011;3623;47.098;15.446;2023-04-24T12:43:56;1.43;;;0.93;;
7162;SDS011;3623;47.098;15.446;2023-04-24T12:46:25;0.80;;;0.80;;
7162;SDS011;3623;47.098;15.446;2023-04-24T12:48:52;1.00;;;1.00;;
7162;SDS011;3623;47.098;15.446;2023-04-24T12:51:24;2.30;;;1.57;;
7162;SDS011;3623;47.098;15.446;2023-04-24T12:53:51;1.33;;;0.83;;
7162;SDS011;3623;47.098;15.446;2023-04-24T12:56:18;1.73;;;0.90;;
7162;SDS011;3623;47.098;15.446;2023-04-24T12:58:45;1.23;;;1.13;;
7162;SDS011;3623;47.098;15.446;2023-04-24T13:01:12;0.90;;;0.90;;
7162;SDS011;3623;47.098;15.446;2023-04-24T13:03:41;1.23;;;0.70;;
7162;SDS011;3623;47.098;15.446;2023-04-24T13:06:10;0.83;;;0.83;;
7162;SDS011;3623;47.098;15.446;2023-04-24T13:08:37;0.80;;;0.70;;
7162;SDS011;3623;47.098;15.446;2023-04-24T13:11:04;0.63;;;0.63;;
7162;SDS011;3623;47.098;15.446;2023-04-24T13:13:32;1.33;;;0.80;;
7162;SDS011;3623;47.098;15.446;2023-04-24T13:15:59;1.03;;;0.90;;
7162;SDS011;3623;47.098;15.446;2023-04-24T13:18:26;0.73;;;0.73;;
7162;SDS011;3623;47.098;15.446;2023-04-24T13:20:55;1.90;;;0.60;;
7162;SDS011;3623;47.098;15.446;2023-04-24T13:23:22;0.60;;;0.60;;
7162;SDS011;3623;47.098;15.446;2023-04-24T13:25:49;3.80;;;0.70;;
7162;SDS011;3623;47.098;15.446;2023-04-24T13:28:16;1.40;;;0.67;;
7162;SDS011;3623;47.098;15.446;2023-04-24T13:30:44;0.80;;;0.80;;
7162;SDS011;3623;47.098;15.446;2023-04-24T13:33:11;0.77;;;0.77;;
7162;SDS011;3623;47.098;15.446;2023-04-24T13:35:38;0.90;;;0.90;;
7162;SDS011;3623;47.098;15.446;2023-04-24T13:38:07;0.80;;;0.70;;
7162;SDS011;3623;47.098;15.446;2023-04-24T13:40:34;0.70;;;0.70;;
7162;SDS011;3623;47.098;15.446;2023-04-24T13:43:02;0.63;;;0.63;;
7162;SDS011;3623;47.098;15.446;2023-04-24T13:45:29;1.50;;;0.80;;
7162;SDS011;3623;47.098;15.446;2023-04-24T13:47:56;8.90;;;2.60;;
7162;SDS011;3623;47.098;15.446;2023-04-24T13:50:23;0.80;;;0.80;;
7162;SDS011;3623;47.098;15.446;2023-04-24T13:52:50;0.60;;;0.57;;
7162;SDS011;3623;47.098;15.446;2023-04-24T13:55:19;0.60;;;0.60;;
7162;SDS011;3623;47.098;15.446;2023-04-24T13:57:46;0.80;;;0.80;;
7162;SDS011;3623;47.098;15.446;2023-04-24T14:00:13;0.87;;;0.87;;
7162;SDS011;3623;47.098;15.446;2023-04-24T14:02:41;0.80;;;0.80;;
7162;SDS011;3623;47.098;15.446;2023-04-24T14:05:08;0.87;;;0.87;;
7162;SDS011;3623;47.098;15.446;2023-04-24T14:07:36;1.10;;;1.10;;
7162;SDS011;3623;47.098;15.446;2023-04-24T14:10:03;0.80;;;0.80;;
7162;SDS011;3623;47.098;15.446;2023-04-24T14:12:32;1.93;;;1.10;;
7162;SDS011;3623;47.098;15.446;2023-04-24T14:14:59;0.90;;;0.90;;
7162;SDS011;3623;47.098;15.446;2023-04-24T14:17:26;2.40;;;1.20;;
7162;SDS011;3623;47.098;15.446;2023-04-24T14:19:54;0.83;;;0.83;;
7162;SDS011;3623;47.098;15.446;2023-04-24T14:22:21;1.00;;;1.00;;
7162;SDS011;3623;47.098;15.446;2023-04-24T14:24:48;1.13;;;1.07;;
7162;SDS011;3623;47.098;15.446;2023-04-24T14:27:15;0.97;;;0.97;;
7162;SDS011;3623;47.098;15.446;2023-04-24T14:29:44;0.90;;;0.90;;
7162;SDS011;3623;47.098;15.446;2023-04-24T14:32:13;0.70;;;0.70;;
7162;SDS011;3623;47.098;15.446;2023-04-24T14:34:41;1.27;;;1.03;;
7162;SDS011;3623;47.098;15.446;2023-04-24T14:37:08;1.53;;;0.93;;
7162;SDS011;3623;47.098;15.446;2023-04-24T14:39:35;1.27;;;1.17;;
7162;SDS011;3623;47.098;15.446;2023-04-24T14:42:02;1.77;;;1.10;;
7162;SDS011;3623;47.098;15.446;2023-04-24T14:44:29;1.50;;;1.40;;
7162;SDS011;3623;47.098;15.446;2023-04-24T14:46:59;2.97;;;1.40;;
7162;SDS011;3623;47.098;15.446;2023-04-24T14:49:26;1.73;;;1.63;;
7162;SDS011;3623;47.098;15.446;2023-04-24T14:51:53;0.90;;;0.90;;
7162;SDS011;3623;47.098;15.446;2023-04-24T14:54:20;2.70;;;1.60;;
7162;SDS011;3623;47.098;15.446;2023-04-24T14:56:48;1.30;;;1.20;;
7162;SDS011;3623;47.098;15.446;2023-04-24T14:59:15;1.33;;;1.23;;
7162;SDS011;3623;47.098;15.446;2023-04-24T15:01:43;1.97;;;1.47;;
7162;SDS011;3623;47.098;15.446;2023-04-24T15:04:11;1.30;;;1.30;;
7162;SDS011;3623;47.098;15.446;2023-04-24T15:06:47;1.87;;;1.60;;
7162;SDS011;3623;47.098;15.446;2023-04-24T15:09:15;1.23;;;1.23;;
7162;SDS011;3623;47.098;15.446;2023-04-24T15:11:42;2.67;;;1.77;;
7162;SDS011;3623;47.098;15.446;2023-04-24T15:14:09;1.50;;;1.40;;
7162;SDS011;3623;47.098;15.446;2023-04-24T15:16:36;1.63;;;1.53;;
7162;SDS011;3623;47.098;15.446;2023-04-24T15:19:04;1.70;;;1.60;;
7162;SDS011;3623;47.098;15.446;2023-04-24T15:21:32;5.40;;;1.60;;
7162;SDS011;3623;47.098;15.446;2023-04-24T15:23:59;1.93;;;1.53;;
7162;SDS011;3623;47.098;15.446;2023-04-24T15:26:26;1.57;;;1.47;;
7162;SDS011;3623;47.098;15.446;2023-04-24T15:28:54;1.03;;;1.03;;
7162;SDS011;3623;47.098;15.446;2023-04-24T15:31:22;1.30;;;1.30;;
7162;SDS011;3623;47.098;15.446;2023-04-24T15:33:49;2.30;;;1.67;;
7162;SDS011;3623;47.098;15.446;2023-04-24T15:36:17;1.37;;;1.27;;
7162;SDS011;3623;47.098;15.446;2023-04-24T15:38:46;1.60;;;1.50;;
7162;SDS011;3623;47.098;15.446;2023-04-24T15:41:13;1.70;;;1.60;;
7162;SDS011;3623;47.098;15.446;2023-04-24T15:43:41;1.60;;;1.50;;
7162;SDS011;3623;47.098;15.446;2023-04-24T15:46:29;2.57;;;1.70;;
7162;SDS011;3623;47.098;15.446;2023-04-24T15:49:11;0.90;;;0.90;;
7162;SDS011;3623;47.098;15.446;2023-04-24T15:51:38;0.95;;;0.95;;
7162;SDS011;3623;47.098;15.446;2023-04-24T15:54:14;1.95;;;1.10;;
7162;SDS011;3623;47.098;15.446;2023-04-24T15:56:44;1.45;;;1.08;;
7162;SDS011;3623;47.098;15.446;2023-04-24T15:59:17;3.65;;;1.00;;
7162;SDS011;3623;47.098;15.446;2023-04-24T16:01:51;1.48;;;0.85;;
7162;SDS011;3623;47.098;15.446;2023-04-24T16:04:19;1.95;;;1.13;;
7162;SDS011;3623;47.098;15.446;2023-04-24T16:06:53;0.73;;;0.73;;
7162;SDS011;3623;47.098;15.446;2023-04-24T16:09:28;2.35;;;1.45;;